createdAt,value
2018-10-05T00:04:10.854Z,6.70
2018-10-05T00:14:22.570Z,6.60
2018-10-05T00:19:28.263Z,6.60
2018-10-05T00:24:35.120Z,6.50
2018-10-05T00:29:41.669Z,6.40
2018-10-05T00:34:47.719Z,6.50
2018-10-05T00:45:02.918Z,6.50
2018-10-05T00:50:09.472Z,6.60
2018-10-05T00:55:15.692Z,6.60
2018-10-05T01:10:32.142Z,6.60
2018-10-05T01:15:40.082Z,6.50
2018-10-05T01:20:44.212Z,6.30
2018-10-05T01:25:48.118Z,6.20
2018-10-05T01:30:51.996Z,6.10
2018-10-05T01:35:55.935Z,6.10
2018-10-05T01:40:59.815Z,6.10
2018-10-05T01:46:03.704Z,6.00
2018-10-05T01:51:07.685Z,6.00
2018-10-05T01:56:11.555Z,6.00
2018-10-05T02:06:18.970Z,5.90
2018-10-05T02:11:22.884Z,5.80
2018-10-05T02:21:30.285Z,5.60
2018-10-05T02:26:34.151Z,5.60
2018-10-05T02:31:38.008Z,5.60
2018-10-05T02:36:41.889Z,5.40
2018-10-05T02:41:45.965Z,5.50
2018-10-05T02:56:56.757Z,5.70
2018-10-05T03:02:12.029Z,5.80
2018-10-05T03:07:15.928Z,5.80
2018-10-05T03:12:19.785Z,5.80
2018-10-05T03:17:23.659Z,5.70
2018-10-05T03:22:27.520Z,5.70
2018-10-05T03:27:31.373Z,5.80
2018-10-05T03:32:36.012Z,5.60
2018-10-05T03:37:39.892Z,5.70
2018-10-05T03:42:43.778Z,5.60
2018-10-05T03:47:47.636Z,5.50
2018-10-05T04:02:58.670Z,5.20
2018-10-05T04:08:02.539Z,5.20
2018-10-05T04:13:06.985Z,5.10
2018-10-05T04:28:17.907Z,4.90
2018-10-05T04:33:21.755Z,5.00
2018-10-05T04:38:25.606Z,4.90
2018-10-05T04:43:29.490Z,4.80
2018-10-05T04:48:33.404Z,4.90
2018-10-05T04:53:37.268Z,4.90
2018-10-05T04:58:41.132Z,4.90
2018-10-05T05:08:48.509Z,4.90
2018-10-05T05:13:52.359Z,4.90
2018-10-05T05:23:59.735Z,4.90
2018-10-05T05:49:17.688Z,5.60
2018-10-05T05:54:21.582Z,5.90
2018-10-05T05:59:25.454Z,5.80
2018-10-05T06:04:29.297Z,5.70
2018-10-05T06:09:33.171Z,5.80
2018-10-05T06:14:37.041Z,5.80
2018-10-05T06:19:40.935Z,6.00
2018-10-05T06:24:44.886Z,6.20
2018-10-05T06:34:53.032Z,6.40
2018-10-05T06:39:57.149Z,6.50
2018-10-05T06:45:01.001Z,6.70
2018-10-05T06:50:05.170Z,7.20
2018-10-05T06:55:11.833Z,7.60
2018-10-05T07:00:17.154Z,7.80
2018-10-05T07:05:22.658Z,8.10
2018-10-05T07:10:27.801Z,8.40
2018-10-05T07:15:33.174Z,9.00
2018-10-05T07:20:38.770Z,9.70
2018-10-05T07:25:43.678Z,10.30
2018-10-05T07:30:50.104Z,10.60
2018-10-05T07:35:54.138Z,11.20
2018-10-05T07:40:58.061Z,11.80
2018-10-05T07:46:01.932Z,12.10
2018-10-05T07:51:06.147Z,12.30
2018-10-05T07:56:10.131Z,12.50
2018-10-05T08:01:13.982Z,12.70
2018-10-05T08:06:17.838Z,13.00
2018-10-05T08:11:21.732Z,12.90
2018-10-05T08:16:25.605Z,13.40
2018-10-05T08:21:29.604Z,13.60
2018-10-05T08:26:33.399Z,13.40
2018-10-05T08:31:37.263Z,13.20
2018-10-05T08:36:41.132Z,13.40
2018-10-05T08:41:45.012Z,12.80
2018-10-05T08:46:49.363Z,13.10
2018-10-05T08:51:53.328Z,12.70
2018-10-05T08:56:57.355Z,12.40
2018-10-05T09:02:01.476Z,12.30
2018-10-05T09:07:05.660Z,12.30
2018-10-05T09:12:09.793Z,12.50
2018-10-05T09:17:13.947Z,12.60
2018-10-05T09:22:18.031Z,12.60
2018-10-05T09:27:31.492Z,12.70
2018-10-05T09:32:35.913Z,13.20
2018-10-05T09:37:40.508Z,13.30
2018-10-05T09:42:45.418Z,13.60
2018-10-05T09:47:51.091Z,14.00
2018-10-05T09:52:57.328Z,14.20
2018-10-05T09:58:10.051Z,14.50
2018-10-05T10:03:20.838Z,14.70
2018-10-05T10:08:25.864Z,15.20
2018-10-05T10:13:30.604Z,15.70
2018-10-05T10:23:50.945Z,17.40
2018-10-05T10:28:56.230Z,17.80
2018-10-05T10:34:06.667Z,18.10
2018-10-05T10:39:14.123Z,18.60
2018-10-05T10:44:20.543Z,19.20
2018-10-05T10:49:25.099Z,19.50
2018-10-05T10:54:29.866Z,19.50
2018-10-05T10:59:33.926Z,19.30
2018-10-05T11:04:44.984Z,19.70
2018-10-05T11:09:48.823Z,20.10
2018-10-05T11:14:52.709Z,20.00
2018-10-05T11:19:56.599Z,20.60
2018-10-05T11:25:00.484Z,21.00
2018-10-05T11:30:04.547Z,20.90
2018-10-05T11:35:08.526Z,21.00
2018-10-05T11:40:12.372Z,20.60
2018-10-05T11:45:16.240Z,20.10
2018-10-05T11:50:20.100Z,19.70
2018-10-05T11:55:24.300Z,19.80
2018-10-05T12:00:28.287Z,19.90
2018-10-05T12:05:32.152Z,20.00
2018-10-05T12:10:36.012Z,20.50
2018-10-05T12:15:40.744Z,20.90
2018-10-05T12:20:44.656Z,21.20
2018-10-05T12:25:49.511Z,20.80
2018-10-05T12:30:53.827Z,20.70
2018-10-05T12:35:57.695Z,21.00
2018-10-05T12:41:01.575Z,21.60
2018-10-05T12:46:05.475Z,22.30
2018-10-05T12:51:09.365Z,22.80
2018-10-05T12:56:13.229Z,23.60
2018-10-05T13:01:17.275Z,23.80
2018-10-05T13:06:21.136Z,23.80
2018-10-05T13:11:25.027Z,22.40
2018-10-05T13:16:28.901Z,22.30
2018-10-05T13:21:33.405Z,22.00
2018-10-05T13:26:37.263Z,21.30
2018-10-05T13:31:41.130Z,20.90
2018-10-05T13:36:44.991Z,20.90
2018-10-05T13:41:49.007Z,20.70
2018-10-05T13:46:52.775Z,20.60
2018-10-05T13:51:56.645Z,20.60
2018-10-05T13:57:01.182Z,20.70
2018-10-05T14:02:05.652Z,21.20
2018-10-05T14:07:10.227Z,21.00
2018-10-05T14:12:14.053Z,20.90
2018-10-05T14:17:17.925Z,21.30
2018-10-05T14:22:21.780Z,22.00
2018-10-05T14:27:25.656Z,22.80
2018-10-05T14:32:29.547Z,23.30
2018-10-05T14:37:33.441Z,24.10
2018-10-05T14:42:37.348Z,24.50
2018-10-05T14:47:41.220Z,24.20
2018-10-05T14:52:45.100Z,24.50
2018-10-05T14:57:48.966Z,24.80
2018-10-05T15:02:52.870Z,24.20
2018-10-05T15:07:57.339Z,23.70
2018-10-05T15:13:01.309Z,22.70
2018-10-05T15:18:05.123Z,22.30
2018-10-05T15:23:08.980Z,21.50
2018-10-05T15:28:12.847Z,21.90
2018-10-05T15:33:16.728Z,21.60
2018-10-05T15:38:20.587Z,21.40
2018-10-05T15:43:24.463Z,21.70
2018-10-05T15:48:28.324Z,21.90
2018-10-05T15:53:32.735Z,22.10
2018-10-05T15:58:36.601Z,20.90
2018-10-05T16:03:40.485Z,19.90
2018-10-05T16:08:44.399Z,19.20
2018-10-05T16:13:48.272Z,18.80
2018-10-05T16:18:52.128Z,18.50
2018-10-05T16:23:56.152Z,18.20
2018-10-05T16:29:00.017Z,18.00
2018-10-05T16:34:03.895Z,17.70
2018-10-05T16:39:17.523Z,17.40
2018-10-05T16:44:21.459Z,17.10
2018-10-05T16:49:25.297Z,16.80
2018-10-05T16:54:29.159Z,16.30
2018-10-05T16:59:33.021Z,15.90
2018-10-05T17:04:36.924Z,15.60
2018-10-05T17:14:44.351Z,14.50
2018-10-05T17:19:48.216Z,14.10
2018-10-05T17:34:59.749Z,13.90
2018-10-05T18:05:21.324Z,13.10
2018-10-05T18:15:28.973Z,12.80
2018-10-05T18:20:33.115Z,12.70
2018-10-05T18:25:37.555Z,12.60
2018-10-05T18:30:41.480Z,12.40
2018-10-05T18:35:47.727Z,12.40
2018-10-05T18:40:54.308Z,12.30
2018-10-05T18:45:58.961Z,12.10
2018-10-05T18:51:02.872Z,11.90
2018-10-05T18:56:18.414Z,11.90
2018-10-05T19:01:22.340Z,11.80
2018-10-05T19:06:26.219Z,11.80
2018-10-05T19:16:33.599Z,11.40
2018-10-05T19:21:37.615Z,11.40
2018-10-05T19:26:41.616Z,11.30
2018-10-05T19:31:45.384Z,11.30
2018-10-05T19:36:49.264Z,11.20
2018-10-05T19:41:53.205Z,11.10
2018-10-05T19:46:57.085Z,10.70
2018-10-05T19:52:01.035Z,10.70
2018-10-05T20:02:08.877Z,10.60
2018-10-05T20:07:12.576Z,10.50
2018-10-05T20:12:16.445Z,10.40
2018-10-05T20:22:23.809Z,10.30
2018-10-05T20:27:27.704Z,10.20
2018-10-05T20:37:35.763Z,10.10
2018-10-05T20:47:44.104Z,9.90
2018-10-05T20:52:47.995Z,9.90
2018-10-05T21:02:55.417Z,9.90
2018-10-05T21:13:02.872Z,9.80
2018-10-05T21:18:07.835Z,9.60
2018-10-05T21:28:15.232Z,9.60
2018-10-05T21:33:19.270Z,9.50
2018-10-05T21:38:23.067Z,9.50
2018-10-05T21:43:26.936Z,9.40
2018-10-05T21:48:30.804Z,9.30
2018-10-05T21:53:34.855Z,9.20
2018-10-05T21:58:38.719Z,9.20
2018-10-05T22:03:47.071Z,9.30
2018-10-05T22:08:50.943Z,9.20
2018-10-05T22:13:54.819Z,9.00
2018-10-05T22:18:59.071Z,9.00
2018-10-05T22:24:03.616Z,9.00
2018-10-05T22:34:11.012Z,8.90
2018-10-05T22:39:14.908Z,8.80
2018-10-05T22:49:25.375Z,8.80
2018-10-05T22:54:29.212Z,8.80
2018-10-05T23:04:36.600Z,8.70
2018-10-05T23:09:40.471Z,8.50
2018-10-05T23:14:44.330Z,8.50
2018-10-05T23:19:48.191Z,8.50
2018-10-05T23:24:52.106Z,8.40
2018-10-05T23:34:59.439Z,8.50
2018-10-05T23:40:03.367Z,8.30
2018-10-05T23:45:07.325Z,8.20
2018-10-05T23:50:11.176Z,8.20
2018-10-05T23:55:15.091Z,8.20
